createdAt,value
2023-02-17T00:01:42.664Z,75.90
2023-02-17T00:04:13.719Z,75.89
2023-02-17T00:06:42.436Z,75.90
2023-02-17T00:09:11.612Z,75.91
2023-02-17T00:11:41.725Z,75.89
2023-02-17T00:14:12.771Z,76.00
2023-02-17T00:16:41.253Z,76.00
2023-02-17T00:19:12.559Z,76.00
2023-02-17T00:21:41.014Z,76.00
2023-02-17T00:24:10.105Z,75.96
2023-02-17T00:26:40.424Z,75.97
2023-02-17T00:29:09.284Z,75.93
2023-02-17T00:31:38.359Z,75.98
2023-02-17T00:34:07.168Z,75.89
2023-02-17T00:36:36.839Z,75.83
2023-02-17T00:39:06.116Z,75.77
2023-02-17T00:41:35.709Z,75.74
2023-02-17T00:44:04.920Z,75.66
2023-02-17T00:46:34.381Z,75.68
2023-02-17T00:49:03.881Z,75.65
2023-02-17T00:51:33.086Z,75.62
2023-02-17T00:54:03.038Z,75.54
2023-02-17T00:56:31.483Z,75.54
2023-02-17T00:59:00.504Z,75.58
2023-02-17T01:01:32.201Z,75.62
2023-02-17T01:04:00.226Z,75.57
2023-02-17T01:06:32.806Z,75.56
2023-02-17T01:09:02.006Z,75.58
2023-02-17T01:11:33.231Z,75.62
2023-02-17T01:14:02.554Z,75.54
2023-02-17T01:16:37.470Z,75.55
2023-02-17T01:19:12.124Z,75.50
2023-02-17T01:21:40.861Z,75.55
2023-02-17T01:24:11.878Z,75.59
2023-02-17T01:26:40.305Z,75.60
2023-02-17T01:29:10.546Z,75.64
2023-02-17T01:31:39.908Z,75.60
2023-02-17T01:34:10.780Z,75.59
2023-02-17T01:36:39.277Z,75.59
2023-02-17T01:39:07.890Z,75.59
2023-02-17T01:41:36.678Z,75.51
2023-02-17T01:44:18.720Z,75.52
2023-02-17T01:46:49.674Z,75.46
2023-02-17T01:49:39.827Z,75.41
2023-02-17T01:52:20.481Z,75.40
2023-02-17T01:55:06.012Z,75.37
2023-02-17T01:57:37.419Z,75.29
2023-02-17T02:00:09.236Z,75.35
2023-02-17T02:02:47.661Z,75.35
2023-02-17T02:05:17.831Z,75.43
2023-02-17T02:07:46.862Z,75.45
2023-02-17T02:10:15.775Z,75.44
2023-02-17T02:12:44.465Z,75.51
2023-02-17T02:15:21.635Z,75.51
2023-02-17T02:18:18.342Z,75.64
2023-02-17T02:21:20.004Z,75.68
2023-02-17T02:24:05.997Z,75.75
2023-02-17T02:26:59.965Z,75.73
2023-02-17T02:29:50.463Z,75.72
2023-02-17T02:32:50.010Z,75.73
2023-02-17T02:35:30.485Z,75.72
2023-02-17T02:38:14.059Z,75.80
2023-02-17T02:40:50.653Z,75.85
2023-02-17T02:43:20.250Z,75.93
2023-02-17T02:45:49.828Z,75.96
2023-02-17T02:48:18.902Z,75.99
2023-02-17T02:50:59.268Z,76.00
2023-02-17T02:53:51.741Z,76.07
2023-02-17T02:56:51.692Z,76.14
2023-02-17T02:59:53.187Z,76.21
2023-02-17T03:02:33.077Z,76.51
2023-02-17T03:05:28.884Z,76.64
2023-02-17T03:08:15.359Z,76.71
2023-02-17T03:10:50.166Z,76.85
2023-02-17T03:13:20.607Z,76.90
2023-02-17T03:15:49.569Z,76.94
2023-02-17T03:18:18.018Z,76.93
2023-02-17T03:20:54.868Z,76.79
2023-02-17T03:23:24.109Z,76.88
2023-02-17T03:25:53.331Z,77.01
2023-02-17T03:28:22.012Z,77.10
2023-02-17T03:30:50.775Z,77.16
2023-02-17T03:33:20.024Z,77.21
2023-02-17T03:35:48.665Z,77.22
2023-02-17T03:38:17.363Z,77.21
2023-02-17T03:40:46.583Z,77.18
2023-02-17T03:43:17.893Z,77.15
2023-02-17T03:45:46.760Z,77.17
2023-02-17T03:48:17.692Z,77.16
2023-02-17T03:50:46.529Z,77.18
2023-02-17T03:53:15.105Z,77.22
2023-02-17T03:55:44.129Z,77.28
2023-02-17T03:58:12.740Z,77.29
2023-02-17T04:00:41.436Z,77.32
2023-02-17T04:03:11.716Z,77.34
2023-02-17T04:05:40.685Z,77.44
2023-02-17T04:08:09.478Z,77.55
2023-02-17T04:10:39.082Z,77.55
2023-02-17T04:13:07.658Z,77.55
2023-02-17T04:15:37.900Z,77.52
2023-02-17T04:18:06.696Z,77.64
2023-02-17T04:20:35.980Z,77.70
2023-02-17T04:23:04.939Z,77.68
2023-02-17T04:25:36.872Z,77.72
2023-02-17T04:28:06.533Z,77.71
2023-02-17T04:30:35.927Z,77.77
2023-02-17T04:33:06.066Z,77.86
2023-02-17T04:35:34.894Z,77.93
2023-02-17T04:38:04.829Z,78.03
2023-02-17T04:40:33.831Z,78.10
2023-02-17T04:43:03.139Z,78.12
2023-02-17T04:45:31.845Z,78.17
2023-02-17T04:48:00.780Z,78.25
2023-02-17T04:50:31.096Z,78.26
2023-02-17T04:52:59.641Z,78.30
2023-02-17T04:55:29.464Z,78.42
2023-02-17T04:57:57.874Z,78.42
2023-02-17T05:00:26.576Z,78.43
2023-02-17T05:02:55.894Z,78.39
2023-02-17T05:05:24.558Z,78.50
2023-02-17T05:07:53.405Z,78.51
2023-02-17T05:10:24.970Z,78.56
2023-02-17T05:12:54.136Z,78.65
2023-02-17T05:15:25.935Z,78.71
2023-02-17T05:17:54.850Z,78.80
2023-02-17T05:20:24.976Z,78.88
2023-02-17T05:22:53.686Z,78.92
2023-02-17T05:25:22.373Z,78.95
2023-02-17T05:27:51.211Z,78.90
2023-02-17T05:30:20.926Z,78.89
2023-02-17T05:32:51.098Z,78.93
2023-02-17T05:35:21.926Z,79.01
2023-02-17T05:37:53.724Z,79.05
2023-02-17T05:40:22.430Z,79.05
2023-02-17T05:42:52.735Z,79.14
2023-02-17T05:45:21.935Z,79.21
2023-02-17T05:47:50.712Z,79.22
2023-02-17T05:50:19.545Z,79.25
2023-02-17T05:52:50.011Z,79.23
2023-02-17T05:55:19.560Z,79.25
2023-02-17T05:57:49.967Z,79.24
2023-02-17T06:00:21.153Z,79.25
2023-02-17T06:02:49.973Z,79.22
2023-02-17T06:05:18.725Z,79.21
2023-02-17T06:07:47.695Z,79.18
2023-02-17T06:10:19.007Z,79.19
2023-02-17T06:12:50.390Z,79.17
2023-02-17T06:15:19.317Z,79.02
2023-02-17T06:17:49.046Z,78.88
2023-02-17T06:20:18.207Z,78.73
2023-02-17T06:22:46.982Z,78.66
2023-02-17T06:25:16.219Z,78.66
2023-02-17T06:27:45.086Z,78.55
2023-02-17T06:30:17.148Z,78.37
2023-02-17T06:32:45.926Z,78.03
2023-02-17T06:35:17.031Z,77.74
2023-02-17T06:37:45.627Z,77.52
2023-02-17T06:40:16.550Z,77.40
2023-02-17T06:42:46.698Z,77.29
2023-02-17T06:45:16.467Z,77.18
2023-02-17T06:47:46.496Z,76.98
2023-02-17T06:50:16.381Z,76.90
2023-02-17T06:52:46.697Z,76.75
2023-02-17T06:55:15.488Z,76.51
2023-02-17T06:57:45.611Z,76.49
2023-02-17T07:00:16.462Z,76.51
2023-02-17T07:02:45.771Z,76.59
2023-02-17T07:05:14.818Z,76.54
2023-02-17T07:07:45.162Z,76.48
2023-02-17T07:10:15.097Z,76.43
2023-02-17T07:12:46.488Z,76.43
2023-02-17T07:15:17.177Z,76.41
2023-02-17T07:17:45.949Z,76.45
2023-02-17T07:20:14.902Z,76.41
2023-02-17T07:22:44.522Z,76.25
2023-02-17T07:25:13.465Z,76.10
2023-02-17T07:27:43.756Z,76.06
2023-02-17T07:30:12.932Z,76.05
2023-02-17T07:32:41.447Z,75.92
2023-02-17T07:35:10.433Z,75.82
2023-02-17T07:37:39.309Z,75.87
2023-02-17T07:40:08.669Z,75.75
2023-02-17T07:42:38.980Z,75.67
2023-02-17T07:45:08.665Z,75.71
2023-02-17T07:47:38.827Z,75.81
2023-02-17T07:50:08.552Z,75.78
2023-02-17T07:52:38.572Z,75.66
2023-02-17T07:55:08.328Z,75.58
2023-02-17T07:57:37.204Z,75.55
2023-02-17T08:00:10.554Z,75.53
2023-02-17T08:02:43.354Z,75.61
2023-02-17T08:05:14.411Z,75.63
2023-02-17T08:07:44.143Z,75.70
2023-02-17T08:10:34.714Z,75.73
2023-02-17T08:13:20.608Z,75.61
2023-02-17T08:15:51.310Z,75.53
2023-02-17T08:18:19.766Z,75.39
2023-02-17T08:20:50.548Z,75.39
2023-02-17T08:23:21.681Z,75.39
2023-02-17T08:25:50.222Z,75.35
2023-02-17T08:28:21.240Z,75.36
2023-02-17T08:30:49.925Z,75.35
2023-02-17T08:33:18.838Z,75.36
2023-02-17T08:35:47.790Z,75.42
2023-02-17T08:38:17.523Z,75.49
2023-02-17T08:40:47.117Z,75.58
2023-02-17T08:43:17.059Z,75.81
2023-02-17T08:45:46.164Z,75.82
2023-02-17T08:48:14.959Z,75.79
2023-02-17T08:50:49.427Z,75.76
2023-02-17T08:53:18.909Z,75.61
2023-02-17T08:55:49.785Z,75.50
2023-02-17T08:58:19.309Z,75.23
2023-02-17T09:00:51.439Z,74.99
2023-02-17T09:03:20.463Z,75.69
2023-02-17T09:05:57.515Z,75.48
2023-02-17T09:08:26.493Z,75.31
2023-02-17T09:10:56.758Z,75.26
2023-02-17T09:13:26.634Z,75.36
2023-02-17T09:15:55.502Z,76.01
2023-02-17T09:18:25.867Z,75.80
2023-02-17T09:20:54.503Z,75.60
2023-02-17T09:23:23.596Z,75.51
2023-02-17T09:26:05.353Z,75.39
2023-02-17T09:28:36.051Z,75.35
2023-02-17T09:31:17.254Z,75.42
2023-02-17T09:33:47.631Z,75.40
2023-02-17T09:36:22.490Z,75.42
2023-02-17T09:38:51.518Z,75.44
2023-02-17T09:41:40.091Z,75.35
2023-02-17T09:44:28.985Z,75.28
2023-02-17T09:47:03.138Z,75.19
2023-02-17T09:49:46.566Z,75.22
2023-02-17T09:52:33.398Z,75.57
2023-02-17T09:55:19.786Z,75.55
2023-02-17T09:57:55.040Z,75.45
2023-02-17T10:00:49.052Z,75.09
2023-02-17T10:03:30.374Z,75.04
2023-02-17T10:06:13.987Z,75.34
2023-02-17T10:09:03.101Z,75.04
2023-02-17T10:11:57.560Z,74.87
2023-02-17T10:15:03.956Z,74.71
2023-02-17T10:17:48.057Z,74.57
2023-02-17T10:20:36.440Z,74.43
2023-02-17T10:23:16.798Z,74.31
2023-02-17T10:26:16.549Z,74.47
2023-02-17T10:28:56.006Z,74.52
2023-02-17T10:31:33.141Z,74.30
2023-02-17T10:34:08.019Z,74.24
2023-02-17T10:36:47.290Z,74.18
2023-02-17T10:39:45.667Z,74.19
2023-02-17T10:42:33.396Z,74.12
2023-02-17T10:45:34.921Z,74.14
2023-02-17T10:48:25.855Z,73.92
2023-02-17T10:50:54.663Z,73.96
2023-02-17T10:53:25.406Z,73.86
2023-02-17T10:56:07.328Z,73.87
2023-02-17T10:59:06.145Z,73.72
2023-02-17T11:01:36.411Z,73.78
2023-02-17T11:04:08.128Z,73.59
2023-02-17T11:06:42.574Z,73.49
2023-02-17T11:09:31.071Z,73.30
2023-02-17T11:12:04.805Z,73.26
2023-02-17T11:14:35.865Z,73.58
2023-02-17T11:17:30.223Z,73.31
2023-02-17T11:20:04.466Z,73.09
2023-02-17T11:22:40.655Z,73.11
2023-02-17T11:25:29.330Z,72.98
2023-02-17T11:28:04.598Z,73.06
2023-02-17T11:30:34.738Z,72.78
2023-02-17T11:33:19.128Z,72.62
2023-02-17T11:35:52.924Z,72.64
2023-02-17T11:38:28.866Z,72.78
2023-02-17T11:41:04.195Z,73.01
2023-02-17T11:43:34.612Z,73.09
2023-02-17T11:46:34.275Z,73.12
2023-02-17T11:49:21.114Z,72.94
2023-02-17T11:52:24.787Z,72.96
2023-02-17T11:55:22.887Z,72.85
2023-02-17T11:58:41.094Z,72.91
2023-02-17T12:01:40.149Z,72.87
2023-02-17T12:04:34.524Z,72.70
2023-02-17T12:07:35.164Z,72.76
2023-02-17T12:10:41.166Z,72.82
2023-02-17T12:13:35.515Z,72.77
2023-02-17T12:16:35.557Z,72.64
2023-02-17T12:19:34.889Z,72.76
2023-02-17T12:22:42.278Z,72.77
2023-02-17T12:25:26.814Z,72.88
2023-02-17T12:28:07.123Z,72.75
2023-02-17T12:31:02.542Z,72.74
2023-02-17T12:33:45.776Z,72.85
2023-02-17T12:36:18.359Z,72.79
2023-02-17T12:39:01.003Z,72.76
2023-02-17T12:41:38.495Z,72.85
2023-02-17T12:44:20.965Z,72.90
2023-02-17T12:46:58.435Z,72.94
2023-02-17T12:50:05.658Z,72.95
2023-02-17T12:52:40.672Z,72.87
2023-02-17T12:55:14.315Z,72.93
2023-02-17T12:57:51.609Z,73.15
2023-02-17T13:00:45.884Z,73.27
2023-02-17T13:03:15.288Z,72.93
2023-02-17T13:06:02.304Z,72.92
2023-02-17T13:08:55.371Z,72.75
2023-02-17T13:11:30.637Z,72.75
2023-02-17T13:14:31.481Z,72.63
2023-02-17T13:17:00.493Z,72.58
2023-02-17T13:19:34.786Z,72.57
2023-02-17T13:22:05.117Z,72.41
2023-02-17T13:24:39.655Z,72.33
2023-02-17T13:27:37.609Z,72.27
2023-02-17T13:30:18.781Z,72.42
2023-02-17T13:32:47.548Z,72.65
2023-02-17T13:35:31.469Z,72.62
2023-02-17T13:38:02.131Z,72.62
2023-02-17T13:40:36.019Z,72.68
2023-02-17T13:43:12.353Z,72.76
2023-02-17T13:45:50.222Z,72.83
2023-02-17T13:48:34.867Z,72.87
2023-02-17T13:51:07.655Z,72.88
2023-02-17T13:53:42.347Z,72.94
2023-02-17T13:56:24.284Z,72.87
2023-02-17T13:58:52.915Z,73.01
2023-02-17T14:01:27.079Z,72.92
2023-02-17T14:03:57.376Z,72.91
2023-02-17T14:06:40.142Z,72.92
2023-02-17T14:09:31.942Z,72.88
2023-02-17T14:12:03.051Z,72.83
2023-02-17T14:14:37.781Z,72.69
2023-02-17T14:17:15.235Z,72.50
2023-02-17T14:19:48.698Z,72.69
2023-02-17T14:22:34.090Z,73.26
2023-02-17T14:25:09.767Z,73.22
2023-02-17T14:27:47.439Z,73.08
2023-02-17T14:30:37.301Z,72.90
2023-02-17T14:33:24.015Z,72.87
2023-02-17T14:36:00.410Z,72.95
2023-02-17T14:38:37.058Z,73.06
2023-02-17T14:41:06.258Z,73.08
2023-02-17T14:43:35.447Z,73.18
2023-02-17T14:46:05.204Z,73.15
2023-02-17T14:48:34.687Z,73.13
2023-02-17T14:51:10.641Z,73.29
2023-02-17T14:53:40.383Z,73.56
2023-02-17T14:56:28.520Z,73.54
2023-02-17T14:58:57.586Z,73.59
2023-02-17T15:01:26.206Z,73.67
2023-02-17T15:03:56.427Z,74.70
2023-02-17T15:06:43.435Z,74.30
2023-02-17T15:09:15.864Z,74.15
2023-02-17T15:11:48.794Z,74.14
2023-02-17T15:14:19.831Z,74.20
2023-02-17T15:16:48.382Z,74.24
2023-02-17T15:19:18.373Z,74.53
2023-02-17T15:21:50.769Z,74.69
2023-02-17T15:24:25.204Z,74.69
2023-02-17T15:26:55.198Z,74.80
2023-02-17T15:29:27.032Z,74.77
2023-02-17T15:32:00.940Z,74.86
2023-02-17T15:34:33.067Z,74.98
2023-02-17T15:37:01.780Z,75.33
2023-02-17T15:39:30.863Z,75.51
2023-02-17T15:42:02.847Z,75.81
2023-02-17T15:44:46.990Z,76.18
2023-02-17T15:47:18.672Z,76.66
2023-02-17T15:49:47.063Z,77.30
2023-02-17T15:52:15.845Z,77.84
2023-02-17T15:54:44.952Z,78.15
2023-02-17T15:57:22.535Z,78.48
2023-02-17T15:59:53.181Z,78.75
2023-02-17T16:02:24.729Z,79.12
2023-02-17T16:04:55.035Z,79.74
2023-02-17T16:07:23.721Z,80.01
2023-02-17T16:09:53.261Z,80.31
2023-02-17T16:12:23.459Z,80.78
2023-02-17T16:14:52.162Z,81.15
2023-02-17T16:17:23.787Z,81.53
2023-02-17T16:19:52.617Z,81.98
2023-02-17T16:22:21.382Z,82.15
2023-02-17T16:24:51.524Z,82.46
2023-02-17T16:27:23.654Z,82.72
2023-02-17T16:29:52.612Z,83.03
2023-02-17T16:32:21.207Z,83.34
2023-02-17T16:34:50.486Z,83.62
2023-02-17T16:37:19.437Z,83.79
2023-02-17T16:39:48.263Z,83.98
2023-02-17T16:42:17.099Z,84.21
2023-02-17T16:44:47.490Z,84.33
2023-02-17T16:47:22.054Z,84.53
2023-02-17T16:49:51.668Z,84.72
2023-02-17T16:52:26.390Z,84.90
2023-02-17T16:54:56.717Z,85.34
2023-02-17T16:57:26.012Z,85.71
2023-02-17T16:59:58.542Z,85.74
2023-02-17T17:02:28.251Z,85.85
2023-02-17T17:04:58.680Z,86.07
2023-02-17T17:07:27.911Z,86.33
2023-02-17T17:10:15.403Z,86.47
2023-02-17T17:12:27.168Z,86.60
2023-02-17T17:14:57.064Z,86.78
2023-02-17T17:17:25.530Z,86.80
2023-02-17T17:19:54.416Z,86.87
2023-02-17T17:22:23.403Z,86.99
2023-02-17T17:24:52.075Z,87.09
2023-02-17T17:27:20.884Z,87.15
2023-02-17T17:29:50.301Z,87.31
2023-02-17T17:32:19.194Z,87.42
2023-02-17T17:34:50.820Z,87.58
2023-02-17T17:37:20.273Z,87.65
2023-02-17T17:39:50.103Z,87.71
2023-02-17T17:42:18.995Z,87.81
2023-02-17T17:44:49.199Z,87.90
2023-02-17T17:47:29.516Z,87.99
2023-02-17T17:49:52.444Z,87.98
2023-02-17T17:52:21.027Z,87.99
2023-02-17T17:54:50.830Z,88.18
2023-02-17T17:57:19.509Z,88.21
2023-02-17T17:59:48.178Z,88.27
2023-02-17T18:02:16.839Z,88.35
2023-02-17T18:04:45.592Z,88.45
2023-02-17T18:07:14.197Z,88.45
2023-02-17T18:09:43.766Z,88.61
2023-02-17T18:12:16.019Z,88.72
2023-02-17T18:14:47.202Z,88.77
2023-02-17T18:17:18.320Z,88.87
2023-02-17T18:19:48.552Z,88.87
2023-02-17T18:22:17.304Z,88.91
2023-02-17T18:24:47.501Z,89.02
2023-02-17T18:27:16.109Z,89.14
2023-02-17T18:29:44.797Z,89.21
2023-02-17T18:32:14.930Z,89.20
2023-02-17T18:34:45.454Z,89.24
2023-02-17T18:37:13.977Z,89.30
2023-02-17T18:39:42.977Z,89.38
2023-02-17T18:42:12.508Z,89.46
2023-02-17T18:44:41.296Z,89.57
2023-02-17T18:47:09.978Z,89.68
2023-02-17T18:49:40.772Z,89.77
2023-02-17T18:52:10.424Z,89.81
2023-02-17T18:54:44.394Z,89.96
2023-02-17T18:57:15.332Z,90.01
2023-02-17T18:59:44.855Z,89.98
2023-02-17T19:02:13.744Z,90.12
2023-02-17T19:04:42.750Z,90.14
2023-02-17T19:07:11.514Z,90.11
2023-02-17T19:09:44.881Z,90.21
2023-02-17T19:12:14.979Z,90.26
2023-02-17T19:14:43.653Z,90.29
2023-02-17T19:17:12.479Z,90.38
2023-02-17T19:19:41.404Z,90.43
2023-02-17T19:22:10.925Z,90.44
2023-02-17T19:24:40.256Z,90.49
2023-02-17T19:27:08.794Z,90.56
2023-02-17T19:29:38.538Z,90.55
2023-02-17T19:32:08.666Z,90.61
2023-02-17T19:34:38.848Z,90.64
2023-02-17T19:37:07.314Z,90.62
2023-02-17T19:39:36.573Z,90.71
2023-02-17T19:42:05.248Z,90.67
2023-02-17T19:44:36.612Z,90.54
2023-02-17T19:47:05.228Z,90.62
2023-02-17T19:49:34.642Z,90.64
2023-02-17T19:52:03.462Z,90.62
2023-02-17T19:54:32.630Z,90.61
2023-02-17T19:57:01.078Z,90.65
2023-02-17T19:59:33.462Z,90.68
2023-02-17T20:02:02.210Z,90.81
2023-02-17T20:04:30.938Z,90.83
2023-02-17T20:06:59.517Z,90.90
2023-02-17T20:09:28.866Z,90.80
2023-02-17T20:11:57.253Z,90.82
2023-02-17T20:14:25.688Z,90.86
2023-02-17T20:16:56.050Z,90.89
2023-02-17T20:19:25.454Z,90.97
2023-02-17T20:21:54.356Z,91.01
2023-02-17T20:24:24.466Z,90.96
2023-02-17T20:26:53.359Z,91.00
2023-02-17T20:29:23.254Z,91.06
2023-02-17T20:31:52.261Z,91.04
2023-02-17T20:34:37.985Z,91.00
2023-02-17T20:37:09.132Z,91.05
2023-02-17T20:39:42.056Z,91.05
2023-02-17T20:42:11.651Z,91.07
2023-02-17T20:44:42.530Z,91.01
2023-02-17T20:47:11.580Z,91.06
2023-02-17T20:49:40.398Z,91.02
2023-02-17T20:52:09.986Z,91.11
2023-02-17T20:54:39.368Z,91.18
2023-02-17T20:57:14.926Z,91.26
2023-02-17T20:59:45.504Z,91.22
2023-02-17T21:02:14.269Z,91.18
2023-02-17T21:04:42.800Z,91.16
2023-02-17T21:07:12.962Z,91.16
2023-02-17T21:09:43.174Z,91.27
2023-02-17T21:12:12.716Z,91.29
2023-02-17T21:14:42.800Z,91.39
2023-02-17T21:17:11.554Z,91.44
2023-02-17T21:19:40.511Z,91.47
2023-02-17T21:22:10.605Z,91.44
2023-02-17T21:24:40.798Z,91.47
2023-02-17T21:27:11.039Z,91.55
2023-02-17T21:29:41.430Z,91.59
2023-02-17T21:32:10.176Z,91.61
2023-02-17T21:34:40.443Z,91.60
2023-02-17T21:37:09.228Z,91.66
2023-02-17T21:39:37.788Z,91.68
2023-02-17T21:42:06.456Z,91.67
2023-02-17T21:44:52.250Z,91.70
2023-02-17T21:47:21.413Z,91.66
2023-02-17T21:49:54.084Z,91.67
2023-02-17T21:52:22.775Z,91.70
2023-02-17T21:54:53.469Z,91.73
2023-02-17T21:57:22.413Z,91.73
2023-02-17T21:59:53.955Z,91.80
2023-02-17T22:02:22.356Z,91.85
2023-02-17T22:04:56.169Z,91.88
2023-02-17T22:07:25.048Z,91.88
2023-02-17T22:09:53.724Z,91.83
2023-02-17T22:12:22.874Z,91.88
2023-02-17T22:14:51.827Z,91.84
2023-02-17T22:17:21.791Z,91.83
2023-02-17T22:19:50.251Z,91.80
2023-02-17T22:22:18.892Z,91.82
2023-02-17T22:24:48.121Z,91.86
2023-02-17T22:27:16.640Z,91.87
2023-02-17T22:29:45.468Z,91.92
2023-02-17T22:32:14.481Z,91.95
2023-02-17T22:34:43.069Z,92.00
2023-02-17T22:37:11.986Z,91.99
2023-02-17T22:39:43.394Z,92.08
2023-02-17T22:42:13.068Z,92.06
2023-02-17T22:44:41.695Z,92.08
2023-02-17T22:47:10.310Z,92.17
2023-02-17T22:49:38.782Z,92.15
2023-02-17T22:52:07.360Z,92.26
2023-02-17T22:54:35.918Z,92.26
2023-02-17T22:57:06.165Z,92.28
2023-02-17T22:59:35.640Z,92.31
2023-02-17T23:02:05.991Z,92.35
2023-02-17T23:04:35.690Z,92.37
2023-02-17T23:07:04.155Z,92.40
2023-02-17T23:09:33.208Z,92.38
2023-02-17T23:12:01.958Z,92.46
2023-02-17T23:14:35.209Z,92.50
2023-02-17T23:17:09.135Z,92.55
2023-02-17T23:19:38.069Z,92.65
2023-02-17T23:22:14.126Z,92.69
2023-02-17T23:24:44.709Z,92.64
2023-02-17T23:27:15.114Z,92.69
2023-02-17T23:29:44.137Z,92.72
2023-02-17T23:32:13.175Z,92.72
2023-02-17T23:34:41.928Z,92.69
2023-02-17T23:37:14.889Z,92.73
2023-02-17T23:39:43.572Z,92.75
2023-02-17T23:42:13.852Z,92.80
2023-02-17T23:44:44.179Z,92.91
2023-02-17T23:47:14.429Z,92.92
2023-02-17T23:49:43.643Z,92.97
2023-02-17T23:52:12.397Z,92.98
2023-02-17T23:54:44.193Z,93.01
2023-02-17T23:57:14.119Z,93.03
2023-02-17T23:59:42.958Z,93.05
